createdAt,value
2019-01-31T00:00:12.652Z,107.70
2019-01-31T00:03:31.309Z,111.23
2019-01-31T00:06:53.284Z,96.70
2019-01-31T00:10:00.321Z,99.77
2019-01-31T00:13:13.460Z,93.43
2019-01-31T00:16:37.603Z,100.53
2019-01-31T00:19:47.048Z,92.13
2019-01-31T00:23:11.763Z,89.63
2019-01-31T00:26:21.283Z,98.07
2019-01-31T00:29:42.517Z,110.23
2019-01-31T00:33:07.136Z,111.67
2019-01-31T00:36:16.638Z,108.63
2019-01-31T00:39:39.620Z,96.73
2019-01-31T00:42:55.322Z,97.33
2019-01-31T00:46:21.612Z,100.10
2019-01-31T00:49:28.468Z,98.40
2019-01-31T00:52:54.893Z,97.10
2019-01-31T00:56:26.020Z,96.17
2019-01-31T00:59:58.493Z,93.43
2019-01-31T01:03:38.325Z,95.63
2019-01-31T01:06:57.391Z,95.20
2019-01-31T01:10:09.970Z,97.47
2019-01-31T01:13:16.737Z,106.87
2019-01-31T01:16:29.382Z,111.80
2019-01-31T01:19:51.272Z,109.90
2019-01-31T01:23:00.924Z,102.17
2019-01-31T01:26:25.975Z,105.13
2019-01-31T01:29:35.663Z,99.07
2019-01-31T01:32:44.934Z,101.30
2019-01-31T01:35:57.764Z,101.90
2019-01-31T01:39:19.237Z,108.60
2019-01-31T01:42:28.052Z,103.70
2019-01-31T01:45:57.410Z,100.03
2019-01-31T01:49:12.888Z,101.93
2019-01-31T01:52:25.517Z,106.77
2019-01-31T01:55:51.941Z,103.93
2019-01-31T01:59:24.303Z,107.87
2019-01-31T02:02:56.423Z,101.97
2019-01-31T02:06:08.836Z,95.60
2019-01-31T02:09:33.866Z,109.20
2019-01-31T02:12:45.875Z,104.70
2019-01-31T02:15:52.742Z,110.53
2019-01-31T02:19:11.110Z,109.33
2019-01-31T02:22:20.888Z,107.50
2019-01-31T02:25:39.595Z,113.43
2019-01-31T02:28:52.242Z,114.77
2019-01-31T02:32:14.036Z,115.43
2019-01-31T02:35:26.916Z,105.87
2019-01-31T02:38:48.445Z,105.87
2019-01-31T02:42:03.824Z,107.43
2019-01-31T02:45:10.663Z,114.27
2019-01-31T02:48:20.443Z,119.67
2019-01-31T02:51:43.677Z,112.60
2019-01-31T02:54:59.373Z,105.47
2019-01-31T02:58:14.987Z,107.97
2019-01-31T03:01:39.774Z,114.87
2019-01-31T03:04:58.358Z,111.07
2019-01-31T03:08:11.006Z,110.43
2019-01-31T03:11:20.902Z,107.37
2019-01-31T03:14:27.728Z,106.10
2019-01-31T03:17:52.617Z,105.77
2019-01-31T03:21:07.986Z,112.63
2019-01-31T03:24:26.555Z,107.23
2019-01-31T03:27:45.363Z,110.43
2019-01-31T03:31:01.069Z,103.83
2019-01-31T03:34:13.542Z,105.97
2019-01-31T03:37:29.078Z,100.83
2019-01-31T03:40:38.637Z,100.57
2019-01-31T03:43:45.446Z,106.20
2019-01-31T03:47:13.434Z,111.63
2019-01-31T03:50:22.980Z,106.73
2019-01-31T03:53:38.502Z,100.47
2019-01-31T03:57:12.337Z,101.53
2019-01-31T04:00:30.468Z,109.10
2019-01-31T04:03:40.268Z,107.30
2019-01-31T04:06:43.962Z,105.90
2019-01-31T04:09:47.663Z,104.67
2019-01-31T04:12:51.322Z,99.60
2019-01-31T04:15:55.023Z,105.93
2019-01-31T04:18:58.657Z,103.80
2019-01-31T04:22:02.357Z,100.23
2019-01-31T04:25:06.053Z,100.63
2019-01-31T04:28:09.692Z,102.60
2019-01-31T04:31:13.422Z,100.77
2019-01-31T04:34:18.608Z,103.97
2019-01-31T04:37:22.303Z,98.03
2019-01-31T04:40:31.415Z,98.30
2019-01-31T04:43:31.314Z,100.67
2019-01-31T04:46:34.989Z,95.80
2019-01-31T04:49:38.732Z,94.80
2019-01-31T04:52:42.411Z,95.73
2019-01-31T04:55:46.052Z,97.07
2019-01-31T04:58:49.744Z,98.80
2019-01-31T05:01:53.584Z,94.40
2019-01-31T05:04:57.341Z,95.57
2019-01-31T05:08:00.977Z,90.63
2019-01-31T05:11:04.692Z,96.97
2019-01-31T05:14:08.357Z,96.73
2019-01-31T05:17:12.065Z,89.03
2019-01-31T05:20:17.334Z,89.37
2019-01-31T05:23:21.044Z,92.53
2019-01-31T05:26:24.735Z,91.87
2019-01-31T05:29:28.475Z,95.77
2019-01-31T05:32:32.144Z,99.67
2019-01-31T05:35:35.855Z,94.17
2019-01-31T05:38:39.491Z,92.57
2019-01-31T05:41:43.187Z,91.33
2019-01-31T05:44:46.832Z,91.90
2019-01-31T05:47:50.582Z,89.33
2019-01-31T05:50:54.629Z,90.03
2019-01-31T05:53:58.352Z,90.87
2019-01-31T05:57:02.862Z,91.93
2019-01-31T06:00:15.595Z,86.10
2019-01-31T06:03:19.234Z,87.03
2019-01-31T06:06:22.967Z,90.67
2019-01-31T06:09:26.635Z,91.97
2019-01-31T06:12:30.342Z,90.30
2019-01-31T06:15:34.042Z,83.63
2019-01-31T06:18:37.686Z,86.07
2019-01-31T06:21:41.391Z,86.40
2019-01-31T06:24:45.088Z,83.00
2019-01-31T06:27:48.743Z,89.57
2019-01-31T06:30:52.470Z,89.03
2019-01-31T06:33:56.189Z,84.53
2019-01-31T06:37:02.538Z,88.10
2019-01-31T06:40:10.647Z,90.13
2019-01-31T06:43:14.659Z,83.40
2019-01-31T06:46:18.372Z,78.60
2019-01-31T06:49:24.328Z,77.17
2019-01-31T06:52:28.007Z,81.07
2019-01-31T06:55:31.683Z,80.17
2019-01-31T06:58:35.406Z,78.37
2019-01-31T07:01:39.033Z,76.57
2019-01-31T07:04:42.779Z,72.37
2019-01-31T07:07:46.403Z,76.17
2019-01-31T07:10:50.010Z,74.53
2019-01-31T07:13:53.681Z,67.13
2019-01-31T07:16:57.372Z,70.57
2019-01-31T07:20:01.022Z,66.67
2019-01-31T07:23:04.683Z,69.67
2019-01-31T07:26:08.320Z,77.53
2019-01-31T07:29:12.073Z,86.93
2019-01-31T07:32:15.704Z,72.53
2019-01-31T07:35:19.549Z,86.63
2019-01-31T07:38:23.184Z,91.27
2019-01-31T07:41:26.878Z,91.50
2019-01-31T07:44:30.770Z,95.27
2019-01-31T07:47:36.751Z,95.70
2019-01-31T07:50:40.035Z,100.30
2019-01-31T07:53:43.673Z,97.47
2019-01-31T07:56:47.395Z,94.80
2019-01-31T07:59:51.095Z,97.13
2019-01-31T08:02:54.742Z,104.27
2019-01-31T08:05:58.468Z,106.80
2019-01-31T08:09:02.660Z,102.57
2019-01-31T08:12:06.353Z,92.57
2019-01-31T08:15:13.255Z,95.73
2019-01-31T08:18:16.946Z,87.03
2019-01-31T08:21:20.751Z,92.13
2019-01-31T08:24:24.442Z,87.80
2019-01-31T08:27:28.107Z,83.10
2019-01-31T08:30:37.873Z,90.67
2019-01-31T08:33:44.219Z,105.30
2019-01-31T08:36:50.858Z,99.47
2019-01-31T08:39:54.517Z,95.43
2019-01-31T08:42:58.214Z,86.67
2019-01-31T08:46:01.968Z,99.17
2019-01-31T08:49:05.740Z,81.90
2019-01-31T08:52:09.457Z,83.60
2019-01-31T08:55:13.104Z,82.10
2019-01-31T08:58:16.966Z,78.80
2019-01-31T09:01:21.554Z,78.13
2019-01-31T09:04:25.249Z,69.23
2019-01-31T09:07:29.327Z,67.43
2019-01-31T09:10:38.757Z,69.10
2019-01-31T09:13:42.411Z,68.80
2019-01-31T09:16:46.098Z,64.37
2019-01-31T09:19:49.732Z,62.97
2019-01-31T09:23:12.935Z,59.97
2019-01-31T09:26:22.275Z,57.63
2019-01-31T09:29:34.813Z,45.83
2019-01-31T09:32:53.735Z,47.20
2019-01-31T09:36:32.088Z,48.70
2019-01-31T09:39:44.727Z,44.80
2019-01-31T09:42:57.284Z,66.60
2019-01-31T09:46:24.633Z,62.60
2019-01-31T09:49:46.312Z,60.63
2019-01-31T09:53:13.348Z,56.80
2019-01-31T09:56:52.503Z,58.23
2019-01-31T10:00:08.290Z,57.63
2019-01-31T10:03:17.629Z,54.03
2019-01-31T10:06:36.010Z,55.27
2019-01-31T10:09:42.829Z,57.60
2019-01-31T10:12:55.373Z,57.73
2019-01-31T10:16:19.681Z,62.83
2019-01-31T10:20:07.441Z,60.87
2019-01-31T10:23:40.733Z,51.87
2019-01-31T10:26:53.050Z,55.87
2019-01-31T10:30:19.579Z,55.90
2019-01-31T10:33:43.034Z,51.17
2019-01-31T10:36:55.747Z,54.00
2019-01-31T10:44:29.340Z,48.67
2019-01-31T10:55:06.611Z,60.10
2019-01-31T11:02:08.515Z,34.47
2019-01-31T11:05:51.457Z,22.00
2019-01-31T11:09:26.363Z,20.87
2019-01-31T11:13:00.868Z,19.13
2019-01-31T11:16:51.545Z,19.43
2019-01-31T11:20:25.062Z,18.67
2019-01-31T11:23:55.264Z,17.87
2019-01-31T11:27:16.473Z,17.90
2019-01-31T11:30:23.320Z,22.90
2019-01-31T11:33:53.145Z,20.83
2019-01-31T11:36:59.507Z,20.07
2019-01-31T11:40:27.290Z,19.53
2019-01-31T11:43:55.200Z,12.43
2019-01-31T11:47:13.980Z,12.77
2019-01-31T11:50:26.389Z,13.17
2019-01-31T11:53:35.724Z,13.03
2019-01-31T11:57:12.631Z,11.63
2019-01-31T12:00:17.896Z,11.63
2019-01-31T12:03:21.633Z,11.10
2019-01-31T12:06:25.363Z,11.60
2019-01-31T12:09:29.169Z,12.73
2019-01-31T12:12:32.894Z,12.87
2019-01-31T12:15:36.617Z,12.03
2019-01-31T12:18:40.267Z,12.37
2019-01-31T12:21:44.009Z,12.03
2019-01-31T12:24:47.641Z,9.77
2019-01-31T12:27:51.260Z,8.47
2019-01-31T12:30:57.771Z,7.77
2019-01-31T12:34:01.519Z,8.37
2019-01-31T12:37:05.194Z,7.43
2019-01-31T12:40:14.425Z,6.90
2019-01-31T12:43:18.098Z,6.07
2019-01-31T12:46:21.954Z,6.97
2019-01-31T12:49:27.761Z,6.90
2019-01-31T12:52:32.235Z,6.47
2019-01-31T12:55:35.917Z,6.70
2019-01-31T12:58:39.889Z,5.97
2019-01-31T13:01:43.571Z,6.57
2019-01-31T13:04:49.436Z,6.20
2019-01-31T13:07:56.313Z,6.23
2019-01-31T13:10:59.993Z,7.13
2019-01-31T13:14:04.392Z,7.13
2019-01-31T13:17:09.965Z,7.23
2019-01-31T13:20:18.041Z,7.30
2019-01-31T13:23:21.994Z,6.97
2019-01-31T13:26:27.101Z,7.37
2019-01-31T13:29:32.138Z,30.00
2019-01-31T13:32:37.533Z,48.57
2019-01-31T13:35:42.264Z,49.80
2019-01-31T13:39:15.360Z,54.13
2019-01-31T13:42:17.463Z,51.73
2019-01-31T13:45:28.648Z,51.20
2019-01-31T13:48:37.591Z,51.97
2019-01-31T13:51:44.235Z,51.37
2019-01-31T13:54:51.136Z,44.67
2019-01-31T13:57:56.128Z,62.33
2019-01-31T14:00:59.883Z,50.77
2019-01-31T14:04:04.956Z,55.77
2019-01-31T14:07:10.885Z,53.27
2019-01-31T14:10:27.932Z,52.33
2019-01-31T14:13:31.762Z,52.47
2019-01-31T14:16:47.192Z,54.77
2019-01-31T14:19:42.914Z,49.33
2019-01-31T14:22:46.656Z,48.63
2019-01-31T14:25:50.424Z,56.50
2019-01-31T14:28:54.146Z,52.20
2019-01-31T14:32:04.508Z,52.83
2019-01-31T14:35:11.069Z,56.27
2019-01-31T14:38:14.862Z,59.23
2019-01-31T14:41:19.968Z,56.23
2019-01-31T14:44:24.902Z,60.40
2019-01-31T14:47:30.324Z,58.20
2019-01-31T14:50:36.337Z,57.00
2019-01-31T14:53:42.360Z,63.97
2019-01-31T14:56:47.122Z,64.47
2019-01-31T14:59:51.719Z,72.47
2019-01-31T15:02:58.703Z,58.60
2019-01-31T15:06:03.494Z,57.20
2019-01-31T15:09:08.814Z,53.40
2019-01-31T15:12:17.127Z,55.57
2019-01-31T15:15:20.931Z,55.43
2019-01-31T15:18:24.744Z,53.67
2019-01-31T15:21:28.622Z,54.50
2019-01-31T15:24:34.012Z,56.10
2019-01-31T15:27:37.873Z,52.63
2019-01-31T15:30:46.882Z,54.07
2019-01-31T15:33:55.612Z,51.67
2019-01-31T15:37:02.086Z,52.97
2019-01-31T15:40:08.150Z,45.00
2019-01-31T15:43:11.902Z,50.37
2019-01-31T15:46:18.086Z,52.60
2019-01-31T15:49:22.283Z,52.90
2019-01-31T15:52:26.762Z,67.63
2019-01-31T15:55:30.841Z,53.73
2019-01-31T15:58:34.750Z,70.13
2019-01-31T16:01:40.214Z,93.03
2019-01-31T16:04:43.981Z,78.23
2019-01-31T16:07:47.699Z,106.20
2019-01-31T16:10:51.483Z,136.93
2019-01-31T16:13:55.312Z,136.07
2019-01-31T16:16:59.097Z,76.23
2019-01-31T16:20:02.911Z,68.93
2019-01-31T16:23:07.140Z,63.83
2019-01-31T16:26:11.118Z,60.63
2019-01-31T16:29:17.844Z,57.60
2019-01-31T16:32:20.908Z,56.47
2019-01-31T16:35:24.647Z,52.60
2019-01-31T16:38:28.795Z,55.97
2019-01-31T16:41:33.351Z,65.40
2019-01-31T16:44:38.849Z,69.57
2019-01-31T16:47:42.696Z,73.23
2019-01-31T16:50:46.499Z,79.77
2019-01-31T16:53:50.378Z,81.07
2019-01-31T16:56:54.223Z,80.67
2019-01-31T16:59:57.982Z,75.03
2019-01-31T17:03:07.196Z,74.13
2019-01-31T17:06:12.638Z,66.97
2019-01-31T17:09:16.485Z,65.03
2019-01-31T17:12:21.529Z,59.63
2019-01-31T17:15:25.350Z,62.33
2019-01-31T17:18:29.128Z,61.37
2019-01-31T17:21:33.209Z,64.93
2019-01-31T17:24:39.506Z,62.53
2019-01-31T17:27:43.353Z,59.63
2019-01-31T17:30:48.670Z,57.60
2019-01-31T17:33:52.803Z,71.77
2019-01-31T17:36:56.803Z,72.60
2019-01-31T17:40:00.646Z,64.50
2019-01-31T17:43:06.591Z,74.93
2019-01-31T17:46:12.180Z,79.10
2019-01-31T17:49:17.714Z,76.47
2019-01-31T17:52:21.702Z,81.27
2019-01-31T17:55:27.879Z,78.33
2019-01-31T17:58:31.778Z,74.40
2019-01-31T18:01:36.175Z,82.60
2019-01-31T18:04:41.614Z,81.60
2019-01-31T18:07:45.335Z,79.07
2019-01-31T18:10:49.354Z,81.80
2019-01-31T18:13:54.842Z,82.23
2019-01-31T18:16:59.509Z,89.27
2019-01-31T18:20:04.423Z,87.50
2019-01-31T18:23:08.316Z,88.30
2019-01-31T18:26:12.164Z,88.17
2019-01-31T18:29:17.475Z,92.93
2019-01-31T18:32:21.313Z,95.27
2019-01-31T18:35:25.133Z,100.50
2019-01-31T18:38:30.725Z,102.17
2019-01-31T18:41:34.460Z,102.10
2019-01-31T18:44:38.310Z,99.03
2019-01-31T18:47:42.438Z,102.80
2019-01-31T18:50:46.338Z,107.20
2019-01-31T18:53:50.293Z,133.13
2019-01-31T18:56:54.101Z,141.90
2019-01-31T18:59:57.932Z,147.10
2019-01-31T19:03:01.652Z,139.10
2019-01-31T19:06:05.495Z,110.97
2019-01-31T19:09:09.432Z,123.17
2019-01-31T19:12:13.376Z,129.57
2019-01-31T19:15:20.527Z,135.57
2019-01-31T19:18:24.458Z,135.03
2019-01-31T19:21:30.394Z,130.47
2019-01-31T19:24:34.335Z,121.27
2019-01-31T19:27:38.115Z,124.30
2019-01-31T19:30:41.895Z,119.73
2019-01-31T19:33:46.635Z,126.20
2019-01-31T19:36:50.497Z,125.13
2019-01-31T19:39:54.263Z,137.20
2019-01-31T19:42:58.159Z,140.47
2019-01-31T19:46:15.162Z,137.47
2019-01-31T19:49:09.921Z,140.10
2019-01-31T19:52:15.558Z,146.07
2019-01-31T19:55:20.091Z,151.80
2019-01-31T19:58:24.167Z,153.10
2019-01-31T20:01:28.059Z,158.83
2019-01-31T20:04:34.671Z,159.07
2019-01-31T20:07:37.306Z,151.97
2019-01-31T20:10:41.116Z,139.57
2019-01-31T20:13:44.894Z,147.23
2019-01-31T20:16:48.926Z,155.20
2019-01-31T20:19:52.712Z,151.90
2019-01-31T20:22:56.816Z,142.73
2019-01-31T20:26:00.701Z,137.03
2019-01-31T20:29:04.712Z,130.53
2019-01-31T20:32:08.665Z,131.87
2019-01-31T20:35:17.330Z,137.13
2019-01-31T20:38:21.129Z,135.37
2019-01-31T20:41:27.311Z,127.20
2019-01-31T20:44:30.362Z,141.93
2019-01-31T20:47:34.253Z,132.23
2019-01-31T20:50:39.119Z,135.70
2019-01-31T20:53:43.018Z,138.57
2019-01-31T20:56:46.803Z,146.23
2019-01-31T20:59:50.659Z,169.97
2019-01-31T21:02:54.878Z,153.97
2019-01-31T21:05:58.686Z,178.68
2019-01-31T21:09:02.481Z,192.80
2019-01-31T21:12:06.498Z,151.53
2019-01-31T21:15:18.808Z,166.53
2019-01-31T21:18:22.583Z,169.60
2019-01-31T21:21:26.429Z,174.00
2019-01-31T21:24:30.329Z,175.83
2019-01-31T21:27:34.077Z,159.93
2019-01-31T21:30:39.291Z,159.77
2019-01-31T21:33:43.022Z,156.47
2019-01-31T21:36:46.896Z,165.37
2019-01-31T21:39:50.734Z,167.63
2019-01-31T21:42:54.530Z,168.80
2019-01-31T21:45:58.316Z,162.57
2019-01-31T21:49:02.264Z,176.40
2019-01-31T21:52:07.920Z,157.67
2019-01-31T21:55:13.040Z,146.80
2019-01-31T21:58:16.815Z,164.00
2019-01-31T22:01:20.547Z,154.43
2019-01-31T22:04:24.320Z,155.27
2019-01-31T22:07:28.051Z,140.60
2019-01-31T22:10:31.833Z,145.03
2019-01-31T22:13:35.619Z,153.60
2019-01-31T22:16:39.400Z,154.40
2019-01-31T22:19:43.157Z,140.67
2019-01-31T22:22:46.935Z,139.77
2019-01-31T22:25:50.831Z,142.80
2019-01-31T22:28:54.650Z,141.43
2019-01-31T22:31:58.798Z,133.27
2019-01-31T22:35:02.590Z,141.57
2019-01-31T22:38:06.431Z,130.13
2019-01-31T22:41:10.434Z,131.50
2019-01-31T22:44:14.408Z,132.30
2019-01-31T22:47:25.950Z,130.30
2019-01-31T22:50:24.134Z,140.17
2019-01-31T22:53:27.942Z,134.43
2019-01-31T22:56:31.812Z,133.30
2019-01-31T22:59:35.619Z,132.43
2019-01-31T23:02:39.443Z,140.90
2019-01-31T23:05:43.304Z,132.93
2019-01-31T23:08:47.070Z,135.27
2019-01-31T23:11:50.844Z,134.80
2019-01-31T23:14:54.618Z,126.47
2019-01-31T23:17:58.968Z,129.50
2019-01-31T23:21:02.758Z,123.50
2019-01-31T23:24:06.524Z,131.70
2019-01-31T23:27:10.308Z,124.83
2019-01-31T23:30:15.955Z,120.63
2019-01-31T23:33:19.830Z,123.50
2019-01-31T23:36:23.591Z,129.13
2019-01-31T23:39:27.330Z,121.37
2019-01-31T23:42:31.119Z,129.30
2019-01-31T23:45:34.835Z,113.23
2019-01-31T23:48:38.600Z,121.60
2019-01-31T23:51:42.324Z,116.73
2019-01-31T23:54:46.155Z,121.30
2019-01-31T23:57:49.901Z,112.93
